Time;durP1;ratioP1;P1;durP2;ratioP2;P2;SDS_P1;SDS_P2;PMS_P1;PMS_P2;Temp;Humidity;BMP_temperature;BMP_pressure;BME280_temperature;BME280_humidity;BME280_pressure;Samples;Min_cycle;Max_cycle;Signal;HPM_P1;HPM_P2
2021/04/18 00:00:39;;;;;;;2.20;0.90;;;9.70;46.20;;;;;;5023455;28;20068;-72
2021/04/18 00:03:05;;;;;;;2.05;0.88;;;9.70;46.30;;;;;;5023591;28;20018;-72
2021/04/18 00:05:31;;;;;;;1.27;0.60;;;9.70;46.50;;;;;;5023371;28;20018;-72
2021/04/18 00:08:02;;;;;;;1.67;0.80;;;9.70;46.50;;;;;;5018884;28;20024;-72
2021/04/18 00:10:35;;;;;;;2.63;0.73;;;9.60;46.40;;;;;;5020811;28;20022;-72
2021/04/18 00:13:01;;;;;;;1.38;0.70;;;9.60;46.60;;;;;;5023113;28;20026;-72
2021/04/18 00:15:27;;;;;;;1.20;0.73;;;9.60;46.70;;;;;;5005772;28;20005;-72
2021/04/18 00:17:53;;;;;;;2.65;0.90;;;9.60;46.60;;;;;;4989600;28;20061;-72
2021/04/18 00:20:18;;;;;;;1.33;0.70;;;9.60;46.60;;;;;;5023166;28;20017;-72
2021/04/18 00:22:44;;;;;;;2.15;0.90;;;9.60;46.10;;;;;;5027017;28;20009;-72
2021/04/18 00:25:14;;;;;;;1.45;0.90;;;9.50;46.20;;;;;;5023937;28;20275;-73
2021/04/18 00:27:40;;;;;;;0.98;0.68;;;9.60;46.20;;;;;;4986115;28;20030;-73
2021/04/18 00:30:10;;;;;;;1.98;0.90;;;9.60;46.20;;;;;;5017646;28;20017;-73
2021/04/18 00:32:36;;;;;;;1.30;0.63;;;9.60;46.20;;;;;;5021770;28;20026;-73
2021/04/18 00:35:03;;;;;;;1.67;0.80;;;9.50;46.30;;;;;;5005111;28;20051;-73
2021/04/18 00:37:29;;;;;;;1.60;0.80;;;9.40;46.50;;;;;;5023367;28;20277;-73
2021/04/18 00:39:55;;;;;;;2.72;1.10;;;9.40;46.90;;;;;;5005525;28;20065;-73
2021/04/18 00:42:20;;;;;;;2.75;0.90;;;9.40;47.10;;;;;;5022730;28;20021;-73
2021/04/18 00:44:46;;;;;;;2.45;0.70;;;9.30;47.30;;;;;;5005382;28;20018;-73
2021/04/18 00:47:12;;;;;;;1.23;0.68;;;9.30;47.20;;;;;;5022065;28;20060;-73
2021/04/18 00:49:37;;;;;;;2.00;0.70;;;9.30;47.00;;;;;;5018468;28;20018;-73
2021/04/18 00:52:03;;;;;;;1.17;0.73;;;9.30;47.30;;;;;;5003701;28;20029;-72
2021/04/18 00:54:29;;;;;;;0.98;0.60;;;9.30;47.20;;;;;;5021880;28;20018;-73
2021/04/18 00:56:54;;;;;;;1.52;0.80;;;9.20;47.40;;;;;;5021661;28;20073;-73
2021/04/18 00:59:21;;;;;;;1.75;0.80;;;9.20;47.60;;;;;;5021953;28;20061;-73
2021/04/18 01:01:47;;;;;;;1.33;0.65;;;9.20;47.60;;;;;;5022081;28;20093;-73
2021/04/18 01:04:12;;;;;;;2.33;0.90;;;9.10;47.30;;;;;;5022511;28;20017;-73
2021/04/18 01:06:38;;;;;;;1.65;0.80;;;9.10;47.60;;;;;;5025920;28;20243;-73
2021/04/18 01:09:04;;;;;;;2.47;0.80;;;9.00;47.70;;;;;;5031475;28;20021;-73
2021/04/18 01:11:29;;;;;;;2.63;0.65;;;9.00;47.60;;;;;;5027735;28;20098;-73
2021/04/18 01:13:55;;;;;;;1.02;0.60;;;9.00;48.10;;;;;;5026476;28;20007;-73
2021/04/18 01:16:21;;;;;;;1.95;0.77;;;8.90;48.20;;;;;;5027470;28;20021;-72
2021/04/18 01:18:46;;;;;;;2.10;0.90;;;8.90;48.40;;;;;;5034325;28;20204;-72
2021/04/18 01:21:12;;;;;;;2.90;0.73;;;8.90;48.50;;;;;;5014826;28;20018;-72
2021/04/18 01:23:38;;;;;;;1.52;0.68;;;8.80;48.60;;;;;;4986468;28;20085;-72
2021/04/18 01:26:04;;;;;;;1.27;0.60;;;8.80;48.70;;;;;;5027707;28;20014;-72
2021/04/18 01:28:30;;;;;;;1.35;0.50;;;8.70;48.90;;;;;;5025142;28;20256;-72
2021/04/18 01:30:55;;;;;;;2.80;0.75;;;8.70;49.20;;;;;;5025415;28;20036;-72
2021/04/18 01:33:21;;;;;;;1.52;0.80;;;8.70;49.30;;;;;;5026774;28;20017;-72
2021/04/18 01:35:47;;;;;;;1.55;0.77;;;8.60;49.50;;;;;;5026077;28;20192;-72
2021/04/18 01:38:14;;;;;;;1.48;0.70;;;8.60;49.70;;;;;;5026466;28;20002;-72
2021/04/18 01:40:40;;;;;;;1.00;0.70;;;8.50;50.00;;;;;;5024596;28;20030;-72
2021/04/18 01:43:05;;;;;;;3.30;0.65;;;8.50;50.00;;;;;;5008647;28;20014;-72
2021/04/18 01:45:31;;;;;;;1.92;0.82;;;8.50;50.90;;;;;;5024824;28;20085;-73
2021/04/18 01:47:56;;;;;;;2.00;0.70;;;8.40;50.40;;;;;;5024942;28;20125;-72
2021/04/18 01:50:22;;;;;;;1.42;0.60;;;8.40;50.50;;;;;;5024932;28;20021;-72
2021/04/18 01:52:48;;;;;;;2.17;0.70;;;8.40;50.70;;;;;;5024816;28;20075;-72
2021/04/18 01:55:14;;;;;;;1.70;0.68;;;8.30;51.20;;;;;;5026005;28;20021;-72
2021/04/18 01:57:40;;;;;;;0.95;0.70;;;8.30;50.90;;;;;;5025337;28;20121;-72
2021/04/18 02:00:07;;;;;;;1.70;0.60;;;8.30;51.00;;;;;;5024396;28;20010;-72
2021/04/18 02:02:32;;;;;;;2.00;0.77;;;8.30;51.20;;;;;;5025837;28;20016;-72
2021/04/18 02:04:58;;;;;;;2.70;0.75;;;8.20;51.20;;;;;;5024345;28;20045;-72
2021/04/18 02:07:24;;;;;;;4.47;0.70;;;8.20;51.20;;;;;;5025008;28;20029;-73
2021/04/18 02:09:49;;;;;;;2.00;0.68;;;8.10;51.30;;;;;;5009178;28;20056;-73
2021/04/18 02:12:15;;;;;;;1.88;0.80;;;8.10;51.70;;;;;;5029229;28;20045;-73
2021/04/18 02:14:40;;;;;;;1.85;0.75;;;8.00;51.70;;;;;;5026042;28;20020;-73
2021/04/18 02:17:06;;;;;;;2.13;0.70;;;8.00;51.90;;;;;;5024289;28;20326;-73
2021/04/18 02:19:32;;;;;;;3.92;0.82;;;8.00;52.00;;;;;;5024241;28;20010;-72
2021/04/18 02:21:58;;;;;;;1.10;0.60;;;7.90;52.20;;;;;;5024428;28;20085;-72
2021/04/18 02:24:24;;;;;;;1.55;0.90;;;7.90;52.40;;;;;;5025079;28;20033;-72
2021/04/18 02:26:50;;;;;;;1.38;0.70;;;7.80;52.50;;;;;;5025090;28;20056;-72
2021/04/18 02:29:15;;;;;;;0.95;0.60;;;7.80;52.70;;;;;;5024921;28;20046;-72
2021/04/18 02:31:41;;;;;;;1.88;0.60;;;7.70;52.80;;;;;;5020398;28;20029;-72
2021/04/18 02:34:07;;;;;;;0.95;0.50;;;7.70;53.00;;;;;;5005400;28;20010;-72
2021/04/18 02:36:32;;;;;;;1.08;0.63;;;7.60;53.20;;;;;;5020610;28;20189;-72
2021/04/18 02:38:58;;;;;;;3.47;0.60;;;7.60;53.40;;;;;;5013491;28;20338;-72
2021/04/18 02:41:23;;;;;;;1.73;0.60;;;7.60;53.50;;;;;;5023831;28;20377;-72
2021/04/18 02:43:49;;;;;;;3.28;1.00;;;7.50;53.60;;;;;;5037932;28;20026;-72
2021/04/18 02:46:15;;;;;;;1.60;0.80;;;7.50;53.90;;;;;;5043624;28;20014;-73
2021/04/18 02:48:40;;;;;;;3.53;0.90;;;7.40;53.90;;;;;;5040891;28;20017;-74
2021/04/18 02:51:06;;;;;;;3.03;1.20;;;7.40;54.10;;;;;;5007475;28;20022;-72
2021/04/18 02:53:32;;;;;;;4.68;1.00;;;7.30;54.30;;;;;;5024715;28;20010;-72
2021/04/18 02:55:57;;;;;;;1.83;0.70;;;7.30;54.50;;;;;;5024846;28;20077;-72
2021/04/18 02:58:23;;;;;;;1.08;0.60;;;7.30;54.80;;;;;;5017090;28;20043;-72
2021/04/18 03:00:49;;;;;;;1.27;0.70;;;7.20;54.70;;;;;;5004940;28;20010;-72
2021/04/18 03:03:15;;;;;;;2.60;0.75;;;7.20;55.00;;;;;;5004771;28;20041;-72
2021/04/18 03:05:40;;;;;;;2.55;0.95;;;7.20;55.20;;;;;;5003899;28;20303;-72
2021/04/18 03:08:06;;;;;;;1.60;0.95;;;7.10;55.20;;;;;;5005399;28;20010;-72
2021/04/18 03:10:32;;;;;;;1.63;0.90;;;7.10;55.30;;;;;;5005057;28;20312;-72
2021/04/18 03:12:57;;;;;;;1.83;0.80;;;7.10;55.50;;;;;;5005272;28;20093;-72
2021/04/18 03:15:23;;;;;;;2.22;0.80;;;7.00;55.50;;;;;;5004487;28;20255;-72
2021/04/18 03:17:49;;;;;;;3.83;0.80;;;7.00;55.70;;;;;;5003384;28;20029;-72
2021/04/18 03:20:15;;;;;;;1.50;0.88;;;7.00;55.90;;;;;;4986548;28;20025;-72
2021/04/18 03:22:41;;;;;;;1.67;0.70;;;6.90;55.90;;;;;;4999893;28;20190;-72
2021/04/18 03:25:07;;;;;;;3.30;0.73;;;6.90;56.20;;;;;;4986493;28;20015;-72
2021/04/18 03:27:32;;;;;;;1.70;0.60;;;6.90;56.30;;;;;;4998983;28;20025;-72
2021/04/18 03:29:58;;;;;;;2.17;0.98;;;6.80;56.40;;;;;;5005246;28;20021;-72
2021/04/18 03:32:24;;;;;;;1.88;0.82;;;6.80;56.40;;;;;;5005270;28;20089;-72
2021/04/18 03:34:49;;;;;;;1.80;0.80;;;6.80;56.50;;;;;;5003559;28;20037;-72
2021/04/18 03:37:15;;;;;;;1.17;0.70;;;6.80;56.60;;;;;;5004470;28;20018;-72
2021/04/18 03:39:41;;;;;;;0.85;0.57;;;6.80;56.80;;;;;;5004712;28;20018;-72
2021/04/18 03:42:07;;;;;;;1.33;0.65;;;6.70;56.90;;;;;;5004464;28;20215;-72
2021/04/18 03:44:32;;;;;;;2.03;1.00;;;6.70;57.20;;;;;;5005075;28;20228;-72
2021/04/18 03:46:58;;;;;;;2.72;0.80;;;6.70;57.20;;;;;;5003082;28;20042;-72
2021/04/18 03:49:24;;;;;;;1.70;0.77;;;6.60;57.30;;;;;;5004090;28;20022;-72
2021/04/18 03:51:49;;;;;;;2.58;0.60;;;6.60;57.40;;;;;;5004724;28;20022;-72
2021/04/18 03:54:15;;;;;;;2.35;0.88;;;6.50;57.60;;;;;;5003155;28;20259;-72
2021/04/18 03:56:41;;;;;;;2.67;0.73;;;6.50;57.80;;;;;;4987501;28;20299;-72
2021/04/18 03:59:06;;;;;;;2.28;0.70;;;6.50;57.80;;;;;;5006652;28;20052;-72
2021/04/18 04:01:32;;;;;;;4.20;0.82;;;6.50;57.90;;;;;;5005572;28;20073;-72
2021/04/18 04:03:57;;;;;;;2.58;0.88;;;6.50;58.00;;;;;;5004157;28;20205;-72
2021/04/18 04:06:23;;;;;;;2.10;0.82;;;6.50;58.20;;;;;;5009969;28;20022;-72
2021/04/18 04:08:49;;;;;;;2.83;0.80;;;6.40;58.20;;;;;;5010217;28;20014;-72
2021/04/18 04:11:14;;;;;;;3.53;0.82;;;6.40;58.20;;;;;;5011723;28;20061;-73
2021/04/18 04:13:40;;;;;;;1.45;0.63;;;6.40;58.20;;;;;;5008939;28;20018;-73
2021/04/18 04:16:06;;;;;;;2.03;1.00;;;6.40;58.30;;;;;;4989823;28;20011;-72
2021/04/18 04:18:31;;;;;;;2.63;0.88;;;6.40;58.30;;;;;;5004989;28;20006;-72
2021/04/18 04:20:57;;;;;;;1.00;0.50;;;6.40;58.40;;;;;;5005044;28;20335;-73
2021/04/18 04:23:23;;;;;;;2.10;0.70;;;6.40;58.60;;;;;;5005265;28;20177;-73
2021/04/18 04:25:48;;;;;;;3.03;0.90;;;6.40;58.60;;;;;;5005446;28;20025;-72
2021/04/18 04:28:14;;;;;;;3.25;0.88;;;6.40;58.70;;;;;;5007263;28;20212;-72
2021/04/18 04:30:40;;;;;;;2.72;0.98;;;6.40;58.80;;;;;;5008405;28;20018;-72
2021/04/18 04:33:06;;;;;;;5.32;0.88;;;6.30;58.90;;;;;;5005625;28;20134;-72
2021/04/18 04:35:32;;;;;;;2.53;0.95;;;6.40;59.10;;;;;;5005338;28;20014;-72
2021/04/18 04:37:58;;;;;;;2.45;1.02;;;6.30;59.10;;;;;;5006025;28;20026;-72
2021/04/18 04:40:24;;;;;;;1.70;0.80;;;6.30;59.20;;;;;;5013401;28;20015;-72
2021/04/18 04:42:49;;;;;;;2.30;1.00;;;6.30;59.30;;;;;;5009236;28;20065;-72
2021/04/18 04:45:15;;;;;;;1.88;0.77;;;6.40;59.30;;;;;;5007904;28;20328;-72
2021/04/18 04:47:41;;;;;;;2.10;0.88;;;6.40;59.40;;;;;;5006431;28;20023;-72
2021/04/18 04:50:07;;;;;;;2.30;0.82;;;6.40;59.30;;;;;;5008447;28;20022;-72
2021/04/18 04:52:33;;;;;;;2.28;1.00;;;6.40;59.30;;;;;;5008752;28;20018;-72
2021/04/18 04:54:58;;;;;;;1.67;0.77;;;6.50;59.30;;;;;;5009606;28;20041;-72
2021/04/18 04:57:24;;;;;;;2.33;0.93;;;6.50;59.20;;;;;;5020228;28;20367;-72
2021/04/18 04:59:50;;;;;;;1.80;0.90;;;6.60;59.00;;;;;;5031790;28;20053;-72
2021/04/18 05:02:15;;;;;;;2.85;1.05;;;6.60;59.00;;;;;;5029100;28;20029;-72
2021/04/18 05:04:41;;;;;;;1.27;0.70;;;6.60;58.70;;;;;;5010408;28;20014;-72
2021/04/18 05:07:06;;;;;;;1.77;0.63;;;6.60;58.60;;;;;;5009857;28;20024;-72
2021/04/18 05:09:32;;;;;;;2.15;0.75;;;6.70;58.70;;;;;;5022869;28;20018;-72
2021/04/18 05:11:58;;;;;;;1.80;0.73;;;6.70;58.60;;;;;;5007205;28;20224;-72
2021/04/18 05:14:23;;;;;;;1.48;0.88;;;6.70;58.60;;;;;;5024884;28;20017;-72
2021/04/18 05:16:49;;;;;;;1.50;0.70;;;6.80;58.40;;;;;;5025323;28;20315;-72
2021/04/18 05:19:14;;;;;;;2.92;1.00;;;6.80;58.50;;;;;;5025008;28;20018;-72
2021/04/18 05:21:40;;;;;;;1.83;0.95;;;6.80;58.40;;;;;;5026300;28;20022;-72
2021/04/18 05:24:06;;;;;;;1.73;0.98;;;6.80;58.60;;;;;;5025138;28;20338;-72
2021/04/18 05:26:32;;;;;;;1.67;0.93;;;6.80;58.70;;;;;;5026106;28;20064;-73
2021/04/18 05:28:57;;;;;;;2.40;1.00;;;6.80;58.70;;;;;;5026193;28;20021;-72
2021/04/18 05:31:23;;;;;;;2.08;1.02;;;6.90;58.70;;;;;;5026105;28;20025;-73
2021/04/18 05:33:49;;;;;;;2.83;0.95;;;6.90;58.60;;;;;;5026202;28;20021;-72
2021/04/18 05:36:15;;;;;;;2.72;1.13;;;6.90;58.70;;;;;;5026073;28;20013;-72
2021/04/18 05:38:40;;;;;;;1.65;1.08;;;6.90;58.70;;;;;;5025898;28;20080;-72
2021/04/18 05:41:06;;;;;;;1.17;0.70;;;7.00;58.80;;;;;;5025138;28;20172;-72
2021/04/18 05:43:31;;;;;;;3.97;1.00;;;7.00;58.70;;;;;;5037106;28;20014;-72
2021/04/18 05:45:57;;;;;;;2.60;1.05;;;7.00;58.80;;;;;;5048413;28;20009;-72
2021/04/18 05:48:23;;;;;;;3.13;0.95;;;7.10;58.80;;;;;;5046280;28;20020;-72
2021/04/18 05:50:48;;;;;;;2.38;0.90;;;7.10;58.70;;;;;;5024956;28;20133;-72
2021/04/18 05:53:14;;;;;;;2.97;1.23;;;7.10;58.80;;;;;;5009243;28;20331;-72
2021/04/18 05:55:41;;;;;;;1.85;1.00;;;7.20;58.80;;;;;;5006237;28;20017;-73
2021/04/18 05:58:07;;;;;;;1.75;0.90;;;7.10;58.80;;;;;;5025379;28;20034;-72
2021/04/18 06:00:33;;;;;;;1.83;0.88;;;7.20;58.90;;;;;;5025822;28;20078;-72
2021/04/18 06:02:58;;;;;;;2.95;0.90;;;7.30;58.70;;;;;;5025780;28;20017;-72
2021/04/18 06:05:24;;;;;;;1.65;0.70;;;7.40;58.70;;;;;;5027022;28;20010;-72
2021/04/18 06:07:50;;;;;;;2.22;0.95;;;7.40;58.50;;;;;;5008638;28;20022;-72
2021/04/18 06:10:15;;;;;;;2.60;0.82;;;7.60;58.30;;;;;;5025277;28;20041;-72
2021/04/18 06:12:41;;;;;;;1.20;0.70;;;7.80;57.90;;;;;;5025159;28;20262;-72
2021/04/18 06:15:07;;;;;;;2.47;1.00;;;7.90;57.90;;;;;;5025083;28;20012;-73
2021/04/18 06:17:33;;;;;;;1.83;0.80;;;8.00;57.50;;;;;;5007724;28;20036;-73
2021/04/18 06:19:58;;;;;;;2.22;0.88;;;8.00;57.50;;;;;;5025107;28;20211;-73
2021/04/18 06:22:24;;;;;;;2.75;0.70;;;8.00;57.60;;;;;;5025160;28;20323;-73
2021/04/18 06:24:50;;;;;;;2.90;0.80;;;8.30;57.40;;;;;;5024927;28;20009;-73
2021/04/18 06:27:15;;;;;;;1.90;0.80;;;8.30;57.10;;;;;;5025082;28;20014;-73
2021/04/18 06:29:41;;;;;;;2.78;1.10;;;8.50;56.90;;;;;;5024875;28;20022;-73
2021/04/18 06:32:07;;;;;;;2.08;0.85;;;8.40;56.90;;;;;;5024923;28;20056;-73
2021/04/18 06:34:32;;;;;;;1.52;0.90;;;8.30;57.30;;;;;;5025893;28;20081;-73
2021/04/18 06:36:58;;;;;;;2.70;1.00;;;8.50;57.10;;;;;;5026453;28;20018;-73
2021/04/18 06:39:24;;;;;;;2.33;0.80;;;8.70;57.00;;;;;;5006964;28;20014;-73
2021/04/18 06:41:54;;;;;;;2.00;0.82;;;8.70;56.80;;;;;;5009326;28;20021;-73
2021/04/18 06:44:20;;;;;;;7.88;0.93;;;9.00;56.50;;;;;;5022762;28;20093;-73
2021/04/18 06:46:48;;;;;;;0.82;0.50;;;9.80;55.70;;;;;;5013151;28;20025;-73
2021/04/18 06:49:14;;;;;;;2.40;0.68;;;10.70;54.00;;;;;;5027339;28;20024;-73
2021/04/18 06:51:39;;;;;;;1.15;0.50;;;11.30;52.50;;;;;;5025085;28;20092;-74
2021/04/18 06:54:06;;;;;;;1.85;0.73;;;11.70;51.70;;;;;;5008700;28;20319;-73
2021/04/18 06:56:31;;;;;;;3.22;0.90;;;12.10;50.10;;;;;;5008646;28;20045;-73
2021/04/18 06:59:00;;;;;;;1.25;0.70;;;11.80;49.80;;;;;;5025341;28;20014;-73
2021/04/18 07:01:26;;;;;;;3.08;1.02;;;11.50;50.60;;;;;;5007217;28;20251;-73
2021/04/18 07:04:08;;;;;;;3.10;1.00;;;11.10;50.80;;;;;;5007677;28;20021;-73
2021/04/18 07:06:38;;;;;;;2.38;0.88;;;11.10;51.80;;;;;;5026457;28;20017;-73
2021/04/18 07:09:04;;;;;;;1.42;0.80;;;11.80;51.40;;;;;;5026378;28;20002;-75
2021/04/18 07:11:42;;;;;;;1.65;0.88;;;11.70;50.30;;;;;;5008645;28;20022;-73
2021/04/18 07:14:20;;;;;;;1.55;0.70;;;12.00;50.80;;;;;;5032625;28;20025;-73
2021/04/18 07:16:46;;;;;;;1.95;1.00;;;13.00;48.50;;;;;;5029838;28;20343;-73
2021/04/18 07:19:27;;;;;;;2.42;0.95;;;12.50;47.90;;;;;;5021399;28;20010;-73
2021/04/18 07:21:54;;;;;;;1.50;0.77;;;12.40;49.10;;;;;;5018827;28;20251;-73
2021/04/18 07:24:21;;;;;;;1.65;0.90;;;12.70;49.10;;;;;;5012981;28;20035;-74
2021/04/18 07:27:03;;;;;;;1.90;0.90;;;12.80;48.40;;;;;;5025211;28;20010;-74
2021/04/18 07:29:30;;;;;;;1.63;0.73;;;13.50;47.40;;;;;;5025330;28;20013;-73
2021/04/18 07:31:58;;;;;;;1.58;0.85;;;13.40;47.20;;;;;;5042870;28;20014;-73
2021/04/18 07:34:25;;;;;;;1.35;0.70;;;13.30;47.80;;;;;;5010828;28;20088;-73
2021/04/18 07:37:04;;;;;;;1.67;0.70;;;14.10;46.40;;;;;;5006393;28;20005;-73
2021/04/18 07:39:30;;;;;;;2.00;1.10;;;14.10;45.90;;;;;;5004230;28;20218;-73
2021/04/18 07:41:55;;;;;;;2.08;1.20;;;13.50;46.10;;;;;;5006108;28;20026;-73
2021/04/18 07:44:23;;;;;;;3.45;0.95;;;13.00;47.50;;;;;;5005357;28;20029;-73
2021/04/18 07:46:50;;;;;;;2.30;0.80;;;13.10;48.10;;;;;;5020660;28;20080;-73
2021/04/18 07:49:16;;;;;;;1.85;0.85;;;13.60;47.40;;;;;;5023460;28;20035;-73
2021/04/18 07:51:46;;;;;;;1.48;0.80;;;13.70;46.30;;;;;;5023178;28;20024;-73
2021/04/18 07:54:13;;;;;;;2.28;1.00;;;12.60;48.20;;;;;;5023398;28;20263;-73
2021/04/18 07:56:45;;;;;;;3.38;1.15;;;12.90;48.60;;;;;;5019084;28;20320;-73
2021/04/18 07:59:17;;;;;;;2.60;0.95;;;13.10;48.30;;;;;;4986364;28;20026;-75
2021/04/18 08:01:43;;;;;;;1.58;0.80;;;12.70;49.20;;;;;;4986722;28;20014;-74
2021/04/18 08:04:10;;;;;;;1.38;0.85;;;13.20;48.60;;;;;;5004233;28;20386;-73
2021/04/18 08:06:42;;;;;;;2.17;0.98;;;13.70;47.80;;;;;;5003187;28;20021;-73
2021/04/18 08:09:21;;;;;;;1.75;1.00;;;14.50;46.20;;;;;;5002561;28;20064;-73
2021/04/18 08:12:05;;;;;;;2.17;0.80;;;14.30;45.80;;;;;;5003595;28;20361;-73
2021/04/18 08:14:31;;;;;;;3.40;1.17;;;14.30;45.80;;;;;;5002738;28;20014;-73
2021/04/18 08:17:04;;;;;;;2.45;1.13;;;14.20;45.90;;;;;;4985993;28;20021;-73
2021/04/18 08:19:30;;;;;;;2.28;1.00;;;14.30;46.70;;;;;;5002154;28;20015;-73
2021/04/18 08:21:56;;;;;;;1.20;0.80;;;15.00;45.30;;;;;;5002078;28;20018;-72
2021/04/18 08:24:21;;;;;;;2.00;0.90;;;15.10;45.20;;;;;;5003218;28;20014;-73
2021/04/18 08:26:59;;;;;;;2.45;1.13;;;15.50;43.90;;;;;;5003531;28;20021;-74
2021/04/18 08:29:24;;;;;;;2.35;1.10;;;15.50;43.20;;;;;;5005483;28;20019;-73
2021/04/18 08:31:54;;;;;;;2.17;0.90;;;15.40;44.30;;;;;;5004446;28;20026;-73
2021/04/18 08:34:31;;;;;;;2.70;1.10;;;15.90;43.40;;;;;;5003160;28;20010;-74
2021/04/18 08:36:58;;;;;;;4.38;1.10;;;15.70;43.30;;;;;;5002252;28;20013;-73
2021/04/18 08:39:28;;;;;;;2.60;1.05;;;15.50;43.60;;;;;;5003159;28;20018;-74
2021/04/18 08:41:58;;;;;;;2.85;1.02;;;15.90;43.30;;;;;;5003263;28;20312;-74
2021/04/18 08:44:26;;;;;;;2.20;0.80;;;15.80;43.30;;;;;;5001656;28;20018;-73
2021/04/18 08:47:01;;;;;;;2.05;0.90;;;16.20;43.20;;;;;;5001726;28;20319;-73
2021/04/18 08:49:31;;;;;;;3.03;1.10;;;16.70;42.10;;;;;;5002878;28;20022;-73
2021/04/18 08:51:57;;;;;;;2.00;1.05;;;17.40;40.80;;;;;;5010052;28;20093;-74
2021/04/18 08:54:28;;;;;;;2.88;1.30;;;17.40;40.60;;;;;;5023743;28;20235;-73
2021/04/18 08:56:55;;;;;;;2.13;1.13;;;16.40;41.60;;;;;;5030389;28;20204;-73
2021/04/18 08:59:21;;;;;;;2.60;1.30;;;16.70;42.10;;;;;;5035128;28;20247;-73
2021/04/18 09:01:58;;;;;;;2.95;1.20;;;17.10;41.70;;;;;;5030876;28;20187;-74
2021/04/18 09:04:24;;;;;;;2.25;1.13;;;17.70;40.30;;;;;;5033487;28;20029;-74
2021/04/18 09:06:49;;;;;;;1.65;1.00;;;17.80;39.60;;;;;;5026438;28;20014;-74
2021/04/18 09:09:15;;;;;;;8.90;1.45;;;18.00;39.60;;;;;;5025875;28;20042;-74
2021/04/18 09:11:44;;;;;;;1.38;0.85;;;17.80;39.60;;;;;;5026120;28;20056;-74
2021/04/18 09:14:09;;;;;;;1.10;0.80;;;18.40;39.20;;;;;;5025221;28;20009;-74
2021/04/18 09:16:36;;;;;;;2.10;1.08;;;18.40;38.90;;;;;;5024614;28;20013;-74
2021/04/18 09:19:37;;;;;;;4.35;1.00;;;18.50;39.00;;;;;;5024480;28;20006;-75
2021/04/18 09:22:05;;;;;;;;;;;18.70;38.50;;;;;;4965095;29;20026;-74
2021/04/18 09:24:36;;;;;;;1.50;0.82;;;18.00;39.00;;;;;;4964017;29;19918;-75
2021/04/18 09:27:07;;;;;;;2.90;1.02;;;17.80;39.90;;;;;;4965279;28;20019;-74
2021/04/18 09:29:34;;;;;;;2.50;1.10;;;18.30;40.40;;;;;;4967500;29;20448;-73
2021/04/18 09:32:07;;;;;;;5.45;2.00;;;18.60;40.50;;;;;;4966594;29;20031;-74
2021/04/18 09:34:34;;;;;;;2.33;1.15;;;18.50;40.20;;;;;;4966367;29;20015;-74
2021/04/18 09:37:00;;;;;;;1.52;0.85;;;18.10;40.10;;;;;;4966490;29;20055;-75
2021/04/18 09:39:30;;;;;;;2.40;0.77;;;18.10;40.90;;;;;;4944795;29;20352;-74
2021/04/18 09:41:56;;;;;;;4.95;0.80;;;18.10;40.50;;;;;;4949937;29;20019;-73
2021/04/18 09:44:28;;;;;;;1.67;1.02;;;18.40;39.70;;;;;;4950020;29;20054;-74
2021/04/18 09:46:55;;;;;;;1.35;0.90;;;18.50;39.10;;;;;;4966066;29;20054;-73
2021/04/18 09:49:21;;;;;;;3.35;1.80;;;18.60;38.90;;;;;;4965731;29;20047;-75
2021/04/18 09:51:56;;;;;;;2.00;1.00;;;18.20;40.10;;;;;;4949432;29;20046;-74
2021/04/18 09:54:26;;;;;;;4.43;1.30;;;18.60;39.90;;;;;;4965646;29;20352;-74
2021/04/18 09:57:38;;;;;;;2.30;0.95;;;18.70;39.70;;;;;;5017336;28;20303;-73
2021/04/18 10:00:20;;;;;;;1.83;0.60;;;18.80;39.80;;;;;;4966027;29;20062;-73
2021/04/18 10:03:07;;;;;;;4.55;0.80;;;18.90;39.60;;;;;;4934039;29;20027;-74
2021/04/18 10:05:57;;;;;;;1.38;0.73;;;18.60;39.60;;;;;;4966120;29;20237;-74
2021/04/18 10:08:32;;;;;;;2.95;0.82;;;18.60;40.40;;;;;;4960741;29;20356;-74
2021/04/18 10:11:07;;;;;;;2.60;0.75;;;18.50;40.70;;;;;;4949746;29;20133;-74
2021/04/18 10:13:49;;;;;;;2.25;1.00;;;18.40;41.10;;;;;;4965358;29;20020;-73
2021/04/18 10:16:15;;;;;;;1.48;1.00;;;18.10;41.30;;;;;;4965683;29;20019;-74
2021/04/18 10:18:42;;;;;;;1.52;0.80;;;17.70;42.20;;;;;;4965370;29;20367;-74
2021/04/18 10:21:15;;;;;;;1.15;0.80;;;17.90;42.30;;;;;;4949775;29;20015;-74
2021/04/18 10:23:41;;;;;;;1.75;0.93;;;18.30;41.00;;;;;;4949359;29;20039;-74
2021/04/18 10:26:06;;;;;;;1.23;0.80;;;18.60;40.60;;;;;;4965561;29;20015;-74
2021/04/18 10:28:32;;;;;;;1.35;1.00;;;18.40;40.10;;;;;;4965172;29;20058;-74
2021/04/18 10:30:58;;;;;;;1.75;0.88;;;18.00;41.30;;;;;;5002640;28;20223;-74
2021/04/18 10:33:23;;;;;;;4.53;1.20;;;18.20;41.50;;;;;;5007771;28;20072;-74
2021/04/18 10:35:49;;;;;;;2.65;1.00;;;17.40;41.60;;;;;;5025992;28;20025;-74
2021/04/18 10:38:14;;;;;;;2.10;1.00;;;16.90;43.00;;;;;;5020245;28;20018;-74
2021/04/18 10:40:40;;;;;;;2.78;1.10;;;16.60;43.30;;;;;;5021612;28;20211;-74
2021/04/18 10:43:09;;;;;;;4.05;1.27;;;16.70;43.70;;;;;;5020569;28;20205;-75
2021/04/18 10:45:35;;;;;;;2.05;1.05;;;15.80;44.30;;;;;;5022297;28;20006;-74
2021/04/18 10:48:00;;;;;;;2.50;0.93;;;15.10;46.20;;;;;;5007608;28;20052;-73
2021/04/18 10:50:26;;;;;;;0.93;0.73;;;15.00;47.30;;;;;;5024236;28;20079;-73
2021/04/18 10:52:52;;;;;;;2.33;1.10;;;15.60;47.10;;;;;;5017672;28;20018;-73
2021/04/18 10:55:17;;;;;;;1.55;0.90;;;15.50;46.20;;;;;;5024339;28;20288;-74
2021/04/18 10:57:43;;;;;;;5.28;1.10;;;15.90;45.80;;;;;;5024321;28;20053;-73
2021/04/18 11:00:10;;;;;;;2.88;1.20;;;15.80;45.30;;;;;;5024335;28;20018;-74
2021/04/18 11:02:35;;;;;;;3.72;1.10;;;15.90;45.50;;;;;;5023823;28;20121;-74
2021/04/18 11:05:01;;;;;;;6.07;1.33;;;15.00;46.20;;;;;;5004076;28;20245;-73
2021/04/18 11:07:26;;;;;;;3.35;1.40;;;14.30;47.90;;;;;;4998171;28;20017;-74
2021/04/18 11:09:52;;;;;;;3.30;0.95;;;13.90;49.40;;;;;;5024304;28;20013;-74
2021/04/18 11:12:19;;;;;;;2.97;1.27;;;14.00;50.20;;;;;;5013595;28;20072;-74
2021/04/18 11:14:45;;;;;;;3.15;1.20;;;14.20;49.20;;;;;;5021462;28;20006;-73
2021/04/18 11:17:10;;;;;;;2.28;0.95;;;14.20;49.10;;;;;;5007993;28;20041;-73
2021/04/18 11:19:36;;;;;;;2.83;1.00;;;14.20;49.00;;;;;;5010868;28;20010;-73
2021/04/18 11:22:02;;;;;;;2.03;1.00;;;14.20;49.20;;;;;;5032701;28;20021;-72
2021/04/18 11:24:27;;;;;;;2.92;1.10;;;14.00;49.30;;;;;;5029282;28;20120;-73
2021/04/18 11:26:53;;;;;;;2.75;1.00;;;13.90;50.50;;;;;;5028169;28;20005;-73
2021/04/18 11:29:19;;;;;;;3.08;1.65;;;13.90;51.00;;;;;;5028094;28;20029;-73
2021/04/18 11:31:45;;;;;;;2.40;1.10;;;13.80;51.30;;;;;;5010697;28;20014;-73
2021/04/18 11:34:10;;;;;;;1.90;1.00;;;13.80;51.50;;;;;;5030525;28;20120;-73
2021/04/18 11:36:36;;;;;;;1.98;0.98;;;13.80;51.90;;;;;;5010185;28;20019;-73
2021/04/18 11:39:02;;;;;;;3.17;1.20;;;14.10;50.70;;;;;;4993349;28;20018;-73
2021/04/18 11:41:27;;;;;;;2.03;1.10;;;14.00;50.40;;;;;;5028911;28;20033;-73
2021/04/18 11:43:53;;;;;;;2.95;1.40;;;14.00;50.80;;;;;;5030415;28;20093;-74
2021/04/18 11:46:19;;;;;;;2.05;1.08;;;14.00;50.80;;;;;;5029084;28;20254;-74
2021/04/18 11:48:44;;;;;;;2.75;1.27;;;14.00;50.30;;;;;;5024614;28;20013;-73
2021/04/18 11:51:10;;;;;;;5.75;1.55;;;14.20;50.10;;;;;;5025798;28;20084;-73
2021/04/18 11:53:35;;;;;;;4.15;1.20;;;14.40;49.70;;;;;;5010613;28;20040;-73
2021/04/18 11:56:01;;;;;;;3.10;1.35;;;14.50;49.30;;;;;;5025812;28;20021;-73
2021/04/18 11:58:27;;;;;;;2.65;1.10;;;14.50;49.80;;;;;;5008203;28;20046;-74
2021/04/18 12:00:52;;;;;;;2.33;1.00;;;14.70;49.60;;;;;;5006096;28;20018;-73
2021/04/18 12:03:18;;;;;;;1.65;0.90;;;15.10;49.10;;;;;;5006466;28;20010;-73
2021/04/18 12:05:44;;;;;;;1.52;0.80;;;15.20;48.80;;;;;;5024553;28;20319;-74
2021/04/18 12:08:16;;;;;;;1.42;0.90;;;15.30;47.70;;;;;;5028150;28;20025;-73
2021/04/18 12:10:42;;;;;;;3.42;1.38;;;14.90;47.80;;;;;;5024673;28;20022;-74
2021/04/18 12:13:07;;;;;;;3.08;1.40;;;14.70;48.80;;;;;;5030091;28;20026;-73
2021/04/18 12:15:33;;;;;;;2.90;1.10;;;14.40;50.30;;;;;;5030172;28;20010;-73
2021/04/18 12:17:59;;;;;;;3.15;1.20;;;14.10;51.70;;;;;;5030749;28;20093;-73
2021/04/18 12:20:24;;;;;;;2.78;1.10;;;14.20;51.50;;;;;;5011218;28;20082;-73
2021/04/18 12:22:50;;;;;;;3.10;1.20;;;14.40;51.50;;;;;;5022448;28;20053;-73
2021/04/18 12:25:15;;;;;;;2.22;1.00;;;14.60;50.80;;;;;;5022400;28;20016;-73
2021/04/18 12:27:41;;;;;;;1.25;0.70;;;14.80;50.60;;;;;;5021186;28;20021;-73
2021/04/18 12:30:07;;;;;;;1.77;0.93;;;15.10;50.00;;;;;;5023464;28;20068;-73
2021/04/18 12:32:33;;;;;;;1.27;0.77;;;15.30;49.70;;;;;;5004139;28;20021;-73
2021/04/18 12:34:59;;;;;;;1.25;0.63;;;15.40;50.00;;;;;;5002146;28;20014;-73
2021/04/18 12:37:24;;;;;;;0.65;0.63;;;15.50;50.30;;;;;;5024561;28;20192;-74
2021/04/18 12:39:50;;;;;;;4.68;1.75;;;15.70;50.30;;;;;;5007466;28;20022;-74
2021/04/18 12:42:16;;;;;;;2.60;1.17;;;16.00;50.40;;;;;;5024699;28;20018;-73
2021/04/18 12:44:41;;;;;;;2.70;1.40;;;16.20;49.30;;;;;;5024086;28;20037;-74
2021/04/18 12:47:12;;;;;;;2.92;1.38;;;16.30;48.90;;;;;;5028427;28;20059;-74
2021/04/18 12:49:38;;;;;;;2.63;0.93;;;16.30;49.40;;;;;;5043972;28;20151;-74
2021/04/18 12:52:04;;;;;;;4.15;1.10;;;16.40;49.10;;;;;;5043650;28;20013;-74